Wetterdaten: Woche 26.04.10 - 02.05.10 (KW17)
Datum Zeit Temp. A. Feuchte A. Luftdruck Regen Wind Richtung Taupunkt Windchill Windben
26.04.2010 00:00 12,1 C 71 % 1020,6 hPa 0,0 l/m 0,0 km/h N-NO 7,0 C 12,1 C 0,0 km/h
26.04.2010 01:00 10,9 C 73 % 1021,1 hPa 0,0 l/m 0,0 km/h O-SO 6,3 C 10,9 C 0,0 km/h
26.04.2010 02:00 11,6 C 73 % 1021,4 hPa 0,0 l/m 0,0 km/h N 6,9 C 11,6 C 0,0 km/h
26.04.2010 03:00 13,4 C 74 % 1021,8 hPa 0,0 l/m 0,6 km/h N-NO 8,9 C 13,4 C 0,4 km/h
26.04.2010 04:00 12,8 C 80 % 1023,0 hPa 0,7 l/m 1,3 km/h SO 9,4 C 12,8 C 0,7 km/h
26.04.2010 05:00 11,8 C 86 % 1023,1 hPa 2,1 l/m 0,0 km/h S-SO 9,5 C 11,8 C 0,0 km/h
26.04.2010 06:00 11,2 C 89 % 1023,3 hPa 0,7 l/m 0,0 km/h O-SO 9,5 C 11,2 C 0,0 km/h
26.04.2010 07:00 12,0 C 89 % 1023,7 hPa 0,0 l/m 0,0 km/h SO 10,2 C 12,0 C 0,0 km/h
26.04.2010 08:00 14,7 C 82 % 1024,0 hPa 0,0 l/m 0,0 km/h SW 11,7 C 14,7 C 0,0 km/h
26.04.2010 09:00 20,8 C 63 % 1024,1 hPa 0,0 l/m 0,0 km/h W-NW 13,5 C 20,8 C 0,0 km/h
26.04.2010 10:00 19,8 C 58 % 1024,3 hPa 0,0 l/m 2,6 km/h N-NO 11,3 C 19,8 C 1,4 km/h
26.04.2010 11:00 22,2 C 53 % 1024,2 hPa 0,0 l/m 0,6 km/h O 12,2 C 22,2 C 0,4 km/h
26.04.2010 12:00 25,3 C 47 % 1023,7 hPa 0,0 l/m 0,0 km/h O-NO 13,2 C 25,3 C 0,0 km/h
26.04.2010 13:00 24,2 C 44 % 1023,4 hPa 0,0 l/m 0,0 km/h NW 11,2 C 24,2 C 0,0 km/h
26.04.2010 14:00 24,9 C 41 % 1022,8 hPa 0,0 l/m 1,9 km/h NW 10,7 C 24,9 C 1,1 km/h
26.04.2010 15:00 26,4 C 36 % 1022,6 hPa 0,0 l/m 16,2 km/h N-NW 10,1 C 24,9 C 9,0 km/h
26.04.2010 16:00 25,8 C 35 % 1022,2 hPa 0,0 l/m 0,0 km/h N-NO 9,2 C 25,8 C 0,0 km/h
26.04.2010 17:00 19,9 C 45 % 1022,2 hPa 0,0 l/m 2,6 km/h N-NO 7,6 C 19,9 C 1,4 km/h
26.04.2010 18:00 21,8 C 44 % 1022,0 hPa 0,0 l/m 3,9 km/h N-NO 9,0 C 21,8 C 2,2 km/h
26.04.2010 19:00 17,6 C 49 % 1022,2 hPa 0,0 l/m 0,0 km/h NO 6,8 C 17,6 C 0,0 km/h
26.04.2010 20:00 14,9 C 59 % 1022,8 hPa 0,0 l/m 0,0 km/h O 7,0 C 14,9 C 0,0 km/h
26.04.2010 21:00 13,6 C 71 % 1023,6 hPa 0,0 l/m 0,0 km/h O-NO 8,4 C 13,6 C 0,0 km/h
26.04.2010 22:00 12,8 C 72 % 1023,7 hPa 0,0 l/m 0,0 km/h O-SO 7,9 C 12,8 C 0,0 km/h
26.04.2010 23:00 11,8 C 75 % 1023,6 hPa 0,0 l/m 0,0 km/h NO 7,5 C 11,8 C 0,0 km/h
27.04.2010 00:00 10,9 C 78 % 1023,7 hPa 0,0 l/m 0,0 km/h NO 7,2 C 10,9 C 0,0 km/h
27.04.2010 01:00 10,1 C 80 % 1024,0 hPa 0,0 l/m 0,0 km/h O-NO 6,8 C 10,1 C 0,0 km/h
27.04.2010 02:00 8,8 C 83 % 1023,7 hPa 0,0 l/m 0,0 km/h O-NO 6,1 C 8,8 C 0,0 km/h
27.04.2010 03:00 7,9 C 86 % 1023,5 hPa 0,0 l/m 0,0 km/h O 5,7 C 7,9 C 0,0 km/h
27.04.2010 04:00 6,9 C 87 % 1023,3 hPa 0,0 l/m 0,0 km/h O 4,9 C 6,9 C 0,0 km/h
27.04.2010 05:00 6,3 C 87 % 1023,3 hPa 0,0 l/m 0,0 km/h NO 4,3 C 6,3 C 0,0 km/h
27.04.2010 06:00 6,3 C 89 % 1023,7 hPa 0,0 l/m 0,0 km/h SO 4,6 C 6,3 C 0,0 km/h
27.04.2010 07:00 7,3 C 89 % 1024,4 hPa 0,0 l/m 0,0 km/h W 5,6 C 7,3 C 0,0 km/h
27.04.2010 08:00 11,3 C 83 % 1024,8 hPa 0,0 l/m 0,0 km/h W-NW 8,5 C 11,3 C 0,0 km/h
27.04.2010 09:00 19,4 C 58 % 1024,5 hPa 0,0 l/m 1,9 km/h N-NW 10,9 C 19,4 C 1,1 km/h
27.04.2010 10:00 21,5 C 51 % 1024,1 hPa 0,0 l/m 0,0 km/h NW 10,9 C 21,5 C 0,0 km/h
27.04.2010 11:00 22,4 C 50 % 1023,7 hPa 0,0 l/m 6,5 km/h NO 11,5 C 22,4 C 3,6 km/h
27.04.2010 12:00 22,1 C 46 % 1023,5 hPa 0,0 l/m 0,0 km/h N-NW 9,9 C 22,1 C 0,0 km/h
27.04.2010 13:00 23,8 C 40 % 1023,3 hPa 0,0 l/m 10,4 km/h N-NO 9,4 C 22,7 C 5,8 km/h
27.04.2010 14:00 25,2 C 37 % 1022,9 hPa 0,0 l/m 0,0 km/h N-NW 9,5 C 25,2 C 0,0 km/h
27.04.2010 15:00 27,1 C 32 % 1022,9 hPa 0,0 l/m 0,0 km/h N-NW 9,0 C 27,1 C 0,0 km/h
27.04.2010 16:00 28,0 C 29 % 1022,2 hPa 0,0 l/m 7,1 km/h NO 8,3 C 27,9 C 4,0 km/h
27.04.2010 17:00 27,4 C 30 % 1022,5 hPa 0,0 l/m 9,7 km/h N-NO 8,3 C 26,9 C 5,4 km/h
27.04.2010 18:00 25,8 C 33 % 1022,4 hPa 0,0 l/m 8,4 km/h NO 8,3 C 25,4 C 4,7 km/h
27.04.2010 19:00 19,6 C 43 % 1022,9 hPa 0,0 l/m 3,2 km/h N-NO 6,7 C 19,6 C 1,8 km/h
27.04.2010 20:00 14,1 C 58 % 1023,6 hPa 0,0 l/m 0,0 km/h O-NO 6,0 C 14,1 C 0,0 km/h
27.04.2010 21:00 11,9 C 68 % 1024,0 hPa 0,0 l/m 0,0 km/h SO 6,2 C 11,9 C 0,0 km/h
27.04.2010 22:00 9,3 C 75 % 1024,4 hPa 0,0 l/m 0,0 km/h O-SO 5,1 C 9,3 C 0,0 km/h
27.04.2010 23:00 9,3 C 77 % 1024,3 hPa 0,0 l/m 0,0 km/h NO 5,5 C 9,3 C 0,0 km/h
28.04.2010 00:00 7,9 C 80 % 1024,2 hPa 0,0 l/m 0,0 km/h NO 4,7 C 7,9 C 0,0 km/h
28.04.2010 01:00 6,2 C 84 % 1024,2 hPa 0,0 l/m 0,0 km/h SO 3,7 C 6,2 C 0,0 km/h
28.04.2010 02:00 5,6 C 86 % 1023,9 hPa 0,0 l/m 0,0 km/h O-NO 3,4 C 5,6 C 0,0 km/h
28.04.2010 03:00 6,4 C 87 % 1023,7 hPa 0,0 l/m 0,0 km/h O-NO 4,4 C 6,4 C 0,0 km/h
28.04.2010 04:00 7,1 C 86 % 1023,9 hPa 0,0 l/m 0,0 km/h N-NO 4,9 C 7,1 C 0,0 km/h
28.04.2010 05:00 6,8 C 85 % 1023,6 hPa 0,0 l/m 0,0 km/h W-NW 4,5 C 6,8 C 0,0 km/h
28.04.2010 06:00 5,3 C 87 % 1024,0 hPa 0,0 l/m 0,0 km/h SO 3,3 C 5,3 C 0,0 km/h
28.04.2010 07:00 8,5 C 88 % 1024,4 hPa 0,0 l/m 0,0 km/h S-SO 6,6 C 8,5 C 0,0 km/h
28.04.2010 08:00 19,2 C 58 % 1024,0 hPa 0,0 l/m 0,0 km/h N-NO 10,7 C 19,2 C 0,0 km/h
28.04.2010 09:00 21,5 C 46 % 1023,6 hPa 0,0 l/m 0,0 km/h W-SW 9,4 C 21,5 C 0,0 km/h
28.04.2010 10:00 23,3 C 45 % 1023,6 hPa 0,0 l/m 15,6 km/h N 10,7 C 21,1 C 8,6 km/h
28.04.2010 11:00 23,8 C 43 % 1023,5 hPa 0,0 l/m 0,6 km/h S-SW 10,5 C 23,8 C 0,4 km/h
28.04.2010 12:00 24,5 C 41 % 1022,7 hPa 0,0 l/m 0,0 km/h SW 10,4 C 24,5 C 0,0 km/h
28.04.2010 13:00 24,9 C 41 % 1021,5 hPa 0,0 l/m 6,5 km/h W-SW 10,7 C 24,9 C 3,6 km/h
28.04.2010 14:00 26,9 C 37 % 1021,0 hPa 0,0 l/m 23,3 km/h N-NW 11,0 C 24,9 C 13,0 km/h
28.04.2010 15:00 30,4 C 28 % 1020,5 hPa 0,0 l/m 0,0 km/h W 9,8 C 30,4 C 0,0 km/h
28.04.2010 16:00 32,2 C 26 % 1019,8 hPa 0,0 l/m 1,3 km/h W 10,2 C 32,2 C 0,7 km/h
28.04.2010 17:00 31,4 C 27 % 1019,1 hPa 0,0 l/m 0,0 km/h W 10,1 C 31,4 C 0,0 km/h
28.04.2010 18:00 30,4 C 28 % 1018,7 hPa 0,0 l/m 0,0 km/h W-SW 9,8 C 30,4 C 0,0 km/h
28.04.2010 19:00 24,2 C 46 % 1018,6 hPa 0,0 l/m 0,0 km/h O-SO 11,8 C 24,2 C 0,0 km/h
28.04.2010 20:00 16,6 C 55 % 1018,8 hPa 0,0 l/m 0,0 km/h SO 7,5 C 16,6 C 0,0 km/h
28.04.2010 21:00 14,0 C 63 % 1019,2 hPa 0,0 l/m 0,0 km/h O-SO 7,1 C 14,0 C 0,0 km/h
28.04.2010 22:00 12,7 C 69 % 1019,0 hPa 0,0 l/m 0,0 km/h O-NO 7,2 C 12,7 C 0,0 km/h
28.04.2010 23:00 11,6 C 73 % 1018,8 hPa 0,0 l/m 0,0 km/h SO 6,9 C 11,6 C 0,0 km/h
29.04.2010 00:00 11,0 C 75 % 1018,3 hPa 0,0 l/m 0,0 km/h O-NO 6,7 C 11,0 C 0,0 km/h
29.04.2010 01:00 10,1 C 77 % 1018,0 hPa 0,0 l/m 0,0 km/h O-NO 6,3 C 10,1 C 0,0 km/h
29.04.2010 02:00 9,6 C 78 % 1017,9 hPa 0,0 l/m 0,0 km/h N-NO 6,0 C 9,6 C 0,0 km/h
29.04.2010 03:00 9,2 C 81 % 1017,8 hPa 0,0 l/m 3,2 km/h O-NO 6,1 C 9,2 C 1,8 km/h
29.04.2010 04:00 7,8 C 83 % 1017,3 hPa 0,0 l/m 0,0 km/h NO 5,1 C 7,8 C 0,0 km/h
29.04.2010 05:00 7,8 C 83 % 1016,7 hPa 0,0 l/m 0,0 km/h NO 5,1 C 7,8 C 0,0 km/h
29.04.2010 06:00 7,4 C 84 % 1016,7 hPa 0,0 l/m 0,0 km/h O-NO 4,9 C 7,4 C 0,0 km/h
29.04.2010 07:00 11,7 C 76 % 1016,7 hPa 0,0 l/m 0,0 km/h O-SO 7,6 C 11,7 C 0,0 km/h
29.04.2010 08:00 23,0 C 48 % 1016,4 hPa 0,0 l/m 0,0 km/h S-SW 11,4 C 23,0 C 0,0 km/h
29.04.2010 09:00 27,9 C 41 % 1016,1 hPa 0,0 l/m 3,9 km/h W-SW 13,4 C 27,9 C 2,2 km/h
29.04.2010 10:00 26,9 C 37 % 1015,7 hPa 0,0 l/m 9,7 km/h W 11,0 C 26,3 C 5,4 km/h
29.04.2010 11:00 26,1 C 38 % 1015,3 hPa 0,0 l/m 3,9 km/h SW 10,7 C 26,1 C 2,2 km/h
29.04.2010 12:00 26,9 C 37 % 1014,1 hPa 0,0 l/m 21,4 km/h NW 11,0 C 25,0 C 11,9 km/h
29.04.2010 13:00 27,6 C 35 % 1013,5 hPa 0,0 l/m 3,9 km/h SW 10,7 C 27,6 C 2,2 km/h
29.04.2010 14:00 29,2 C 34 % 1012,6 hPa 0,0 l/m 7,1 km/h W 11,7 C 29,1 C 4,0 km/h
29.04.2010 15:00 31,1 C 28 % 1011,5 hPa 0,0 l/m 0,6 km/h N-NW 10,4 C 31,1 C 0,4 km/h
29.04.2010 16:00 31,0 C 31 % 1010,8 hPa 0,0 l/m 10,4 km/h W-NW 11,9 C 30,8 C 5,8 km/h
29.04.2010 17:00 32,4 C 26 % 1010,3 hPa 0,0 l/m 16,2 km/h W 10,4 C 32,3 C 9,0 km/h
29.04.2010 18:00 28,5 C 35 % 1009,8 hPa 0,0 l/m 0,0 km/h W-SW 11,5 C 28,5 C 0,0 km/h
29.04.2010 19:00 24,2 C 47 % 1009,7 hPa 0,0 l/m 0,0 km/h O-NO 12,2 C 24,2 C 0,0 km/h
29.04.2010 20:00 19,5 C 55 % 1009,6 hPa 0,0 l/m 0,0 km/h SO 10,2 C 19,5 C 0,0 km/h
29.04.2010 21:00 17,5 C 59 % 1010,3 hPa 0,0 l/m 0,0 km/h NO 9,4 C 17,5 C 0,0 km/h
29.04.2010 22:00 15,9 C 66 % 1010,2 hPa 0,0 l/m 0,0 km/h O-NO 9,6 C 15,9 C 0,0 km/h
29.04.2010 23:00 14,5 C 69 % 1010,2 hPa 0,0 l/m 0,0 km/h N-NO 8,9 C 14,5 C 0,0 km/h
30.04.2010 00:00 16,9 C 64 % 1010,9 hPa 0,0 l/m 7,8 km/h N-NO 10,0 C 16,2 C 4,3 km/h
30.04.2010 01:00 19,1 C 53 % 1010,7 hPa 0,0 l/m 28,5 km/h W-SW 9,3 C 13,7 C 15,8 km/h
30.04.2010 02:00 20,1 C 45 % 1010,7 hPa 0,0 l/m 24,0 km/h W-SW 7,8 C 15,7 C 13,3 km/h
30.04.2010 03:00 19,5 C 49 % 1011,1 hPa 0,0 l/m 18,1 km/h SW 8,5 C 15,9 C 10,1 km/h
30.04.2010 04:00 19,1 C 51 % 1011,6 hPa 0,0 l/m 14,3 km/h SW 8,7 C 16,3 C 7,9 km/h
30.04.2010 05:00 17,9 C 52 % 1011,3 hPa 0,0 l/m 24,0 km/h SW 7,9 C 12,7 C 13,3 km/h
30.04.2010 06:00 17,6 C 59 % 1011,6 hPa 0,0 l/m 12,3 km/h W-SW 9,5 C 15,2 C 6,8 km/h
30.04.2010 07:00 17,6 C 61 % 1012,0 hPa 0,0 l/m 19,4 km/h W-NW 10,0 C 13,2 C 10,8 km/h
30.04.2010 08:00 17,1 C 63 % 1012,0 hPa 0,0 l/m 4,5 km/h S-SW 10,0 C 17,1 C 2,5 km/h
30.04.2010 09:00 16,5 C 68 % 1012,5 hPa 0,0 l/m 20,7 km/h S-SO 10,6 C 11,5 C 11,5 km/h
30.04.2010 10:00 14,6 C 83 % 1012,7 hPa 1,1 l/m 0,0 km/h N-NW 11,7 C 14,6 C 0,0 km/h
30.04.2010 11:00 14,6 C 85 % 1013,4 hPa 0,4 l/m 0,0 km/h NW 12,1 C 14,6 C 0,0 km/h
30.04.2010 12:00 15,9 C 81 % 1013,0 hPa 0,4 l/m 0,0 km/h SW 12,6 C 15,9 C 0,0 km/h
30.04.2010 13:00 15,4 C 80 % 1012,4 hPa 0,4 l/m 4,5 km/h S-SO 12,0 C 15,4 C 2,5 km/h
30.04.2010 14:00 18,8 C 74 % 1011,6 hPa 0,4 l/m 0,0 km/h W-NW 14,1 C 18,8 C 0,0 km/h
30.04.2010 15:00 20,5 C 62 % 1011,4 hPa 0,0 l/m 20,1 km/h NW 13,0 C 16,8 C 11,2 km/h
30.04.2010 16:00 16,8 C 75 % 1011,3 hPa 0,0 l/m 1,9 km/h NW 12,3 C 16,8 C 1,1 km/h
30.04.2010 17:00 17,9 C 76 % 1011,2 hPa 0,0 l/m 0,0 km/h W-NW 13,6 C 17,9 C 0,0 km/h
30.04.2010 18:00 16,1 C 77 % 1011,3 hPa 0,0 l/m 0,0 km/h N-NO 12,1 C 16,1 C 0,0 km/h
30.04.2010 19:00 13,5 C 82 % 1011,8 hPa 0,4 l/m 0,0 km/h O-SO 10,5 C 13,5 C 0,0 km/h
30.04.2010 20:00 12,6 C 85 % 1012,0 hPa 0,0 l/m 0,0 km/h O-NO 10,1 C 12,6 C 0,0 km/h
30.04.2010 21:00 12,4 C 87 % 1012,5 hPa 0,0 l/m 0,0 km/h O 10,3 C 12,4 C 0,0 km/h
30.04.2010 22:00 11,9 C 89 % 1012,5 hPa 0,4 l/m 0,0 km/h O 10,1 C 11,9 C 0,0 km/h
30.04.2010 23:00 12,1 C 90 % 1012,4 hPa 0,4 l/m 0,0 km/h O 10,5 C 12,1 C 0,0 km/h
01.05.2010 00:00 12,2 C 91 % 1011,9 hPa 0,0 l/m 0,0 km/h NO 10,8 C 12,2 C 0,0 km/h
01.05.2010 01:00 11,8 C 92 % 1011,6 hPa 0,0 l/m 0,0 km/h O-NO 10,5 C 11,8 C 0,0 km/h
01.05.2010 02:00 11,3 C 92 % 1011,3 hPa 0,0 l/m 0,0 km/h N-NO 10,0 C 11,3 C 0,0 km/h
01.05.2010 03:00 11,2 C 92 % 1010,8 hPa 0,0 l/m 0,0 km/h O 9,9 C 11,2 C 0,0 km/h
01.05.2010 04:00 11,3 C 93 % 1010,6 hPa 0,0 l/m 0,0 km/h N-NO 10,2 C 11,3 C 0,0 km/h
01.05.2010 05:00 11,3 C 93 % 1010,2 hPa 0,0 l/m 1,9 km/h O-NO 10,2 C 11,3 C 1,1 km/h
01.05.2010 06:00 10,9 C 93 % 1010,1 hPa 0,0 l/m 0,0 km/h NO 9,8 C 10,9 C 0,0 km/h
01.05.2010 07:00 11,9 C 93 % 1010,7 hPa 0,0 l/m 0,0 km/h SW 10,8 C 11,9 C 0,0 km/h
01.05.2010 08:00 13,4 C 88 % 1011,1 hPa 0,0 l/m 9,7 km/h W-SW 11,5 C 11,5 C 5,4 km/h
01.05.2010 09:00 14,1 C 85 % 1010,7 hPa 0,0 l/m 0,0 km/h SW 11,6 C 14,1 C 0,0 km/h
01.05.2010 10:00 13,5 C 86 % 1011,0 hPa 0,4 l/m 7,1 km/h W-SW 11,2 C 13,1 C 4,0 km/h
01.05.2010 11:00 14,9 C 85 % 1011,2 hPa 0,0 l/m 7,8 km/h SO 12,4 C 14,1 C 4,3 km/h
01.05.2010 12:00 17,3 C 78 % 1010,5 hPa 0,0 l/m 0,0 km/h W-SW 13,4 C 17,3 C 0,0 km/h
01.05.2010 13:00 16,9 C 73 % 1010,3 hPa 0,0 l/m 24,0 km/h W-SW 12,0 C 11,4 C 13,3 km/h
01.05.2010 14:00 17,6 C 73 % 1009,7 hPa 0,0 l/m 2,6 km/h W-SW 12,7 C 17,6 C 1,4 km/h
01.05.2010 15:00 17,5 C 69 % 1009,7 hPa 0,0 l/m 7,8 km/h W-SW 11,7 C 16,8 C 4,3 km/h
01.05.2010 16:00 14,4 C 82 % 1009,6 hPa 0,0 l/m 18,8 km/h W 11,4 C 9,3 C 10,4 km/h
01.05.2010 17:00 15,5 C 80 % 1009,4 hPa 0,4 l/m 0,0 km/h N-NW 12,1 C 15,5 C 0,0 km/h
01.05.2010 18:00 12,8 C 86 % 1009,7 hPa 0,0 l/m 0,0 km/h N-NO 10,5 C 12,8 C 0,0 km/h
01.05.2010 19:00 11,9 C 89 % 1010,0 hPa 2,1 l/m 0,0 km/h SO 10,1 C 11,9 C 0,0 km/h
01.05.2010 20:00 11,6 C 90 % 1010,5 hPa 0,4 l/m 0,0 km/h SO 10,0 C 11,6 C 0,0 km/h
01.05.2010 21:00 11,4 C 91 % 1011,2 hPa 0,4 l/m 0,0 km/h S-SO 10,0 C 11,4 C 0,0 km/h
01.05.2010 22:00 11,1 C 92 % 1011,2 hPa 0,4 l/m 0,0 km/h S-SO 9,8 C 11,1 C 0,0 km/h
01.05.2010 23:00 10,6 C 92 % 1010,9 hPa 0,0 l/m 0,0 km/h S-SO 9,4 C 10,6 C 0,0 km/h
02.05.2010 00:00 9,8 C 92 % 1011,0 hPa 0,0 l/m 0,0 km/h SO 8,6 C 9,8 C 0,0 km/h
02.05.2010 01:00 9,5 C 93 % 1010,7 hPa 0,0 l/m 0,0 km/h S-SO 8,4 C 9,5 C 0,0 km/h
02.05.2010 02:00 9,6 C 93 % 1010,6 hPa 0,0 l/m 0,0 km/h SO 8,5 C 9,6 C 0,0 km/h
02.05.2010 03:00 9,6 C 94 % 1010,1 hPa 0,0 l/m 0,0 km/h S-SO 8,7 C 9,6 C 0,0 km/h
02.05.2010 04:00 9,5 C 94 % 1009,7 hPa 0,0 l/m 0,0 km/h S-SO 8,6 C 9,5 C 0,0 km/h
02.05.2010 05:00 9,1 C 94 % 1009,0 hPa 0,0 l/m 0,0 km/h SO 8,2 C 9,1 C 0,0 km/h
02.05.2010 06:00 9,3 C 94 % 1009,0 hPa 0,0 l/m 0,0 km/h S-SO 8,4 C 9,3 C 0,0 km/h
02.05.2010 07:00 9,9 C 94 % 1009,2 hPa 0,4 l/m 0,0 km/h O 9,0 C 9,9 C 0,0 km/h
02.05.2010 08:00 10,7 C 94 % 1009,3 hPa 0,0 l/m 0,0 km/h S-SO 9,8 C 10,7 C 0,0 km/h
02.05.2010 09:00 12,3 C 93 % 1009,1 hPa 0,0 l/m 0,0 km/h W-SW 11,2 C 12,3 C 0,0 km/h
02.05.2010 10:00 13,9 C 85 % 1009,3 hPa 0,0 l/m 1,9 km/h W-SW 11,4 C 13,9 C 1,1 km/h
02.05.2010 11:00 15,1 C 80 % 1009,2 hPa 0,0 l/m 0,0 km/h S-SO 11,7 C 15,1 C 0,0 km/h
02.05.2010 12:00 15,9 C 75 % 1008,8 hPa 0,0 l/m 11,0 km/h W-SW 11,5 C 13,7 C 6,1 km/h
02.05.2010 13:00 16,6 C 70 % 1008,3 hPa 0,0 l/m 19,4 km/h W 11,1 C 12,0 C 10,8 km/h
02.05.2010 14:00 16,7 C 68 % 1008,4 hPa 0,0 l/m 18,8 km/h W-SW 10,8 C 12,2 C 10,4 km/h
02.05.2010 15:00 15,8 C 70 % 1008,1 hPa 0,0 l/m 32,4 km/h W 10,3 C 8,4 C 18,0 km/h
02.05.2010 16:00 16,1 C 67 % 1007,4 hPa 0,0 l/m 4,5 km/h W 10,0 C 16,1 C 2,5 km/h
02.05.2010 17:00 13,7 C 71 % 1007,8 hPa 0,0 l/m 24,6 km/h S-SO 8,5 C 6,9 C 13,7 km/h
02.05.2010 18:00 12,2 C 79 % 1007,8 hPa 0,0 l/m 14,3 km/h W-SW 8,7 C 8,1 C 7,9 km/h
02.05.2010 19:00 11,4 C 79 % 1007,9 hPa 0,0 l/m 2,6 km/h SO 7,9 C 11,4 C 1,4 km/h
02.05.2010 20:00 10,6 C 84 % 1008,3 hPa 0,0 l/m 3,9 km/h S-SO 8,0 C 10,6 C 2,2 km/h
02.05.2010 21:00 9,7 C 88 % 1008,5 hPa 0,4 l/m 0,0 km/h O-SO 7,8 C 9,7 C 0,0 km/h
02.05.2010 22:00 9,2 C 90 % 1008,3 hPa 0,0 l/m 0,0 km/h S-SO 7,6 C 9,2 C 0,0 km/h
02.05.2010 23:00 9,2 C 91 % 1008,5 hPa 0,0 l/m 0,0 km/h O-NO 7,8 C 9,2 C 0,0 km/h
Min-Datum _ 28.04.10 28.04.10 02.05.10 - 26.04.10 - 28.04.10 28.04.10 26.04.10
_ Min-Zeit 06:53 16:53 16:53 - 00:53 - 06:53 06:53 00:53
Minimum _ 5,3 C 26 % 1007,4 hPa - 0,0 km/h - 3,3 C 5,3 C 0,0 km/h
Max-Datum _ 29.04.10 02.05.10 27.04.10 26.04.10 02.05.10 - 30.04.10 29.04.10 02.05.10
_ Max-Zeit 17:53 03:53 08:53 05:53 15:53 - 14:53 17:53 15:53
Maximum _ 32,4 C 94 % 1024,8 hPa 2,1 l/m 32,4 km/h
W
- 14,1 C 32,3 C 18,0 km/h
W
Durchschnitt _ 16,0 C 69 % 1016,2 hPa #11,7 l/m 3,7 km/h O-NO 9,3 C 15,5 C 2,0 km/h